Airfield :
LOGIN :

Register | Disclaimer

   EN    FR    IT 

 










Legend :    VFR   Marginal VFR   IFR   Intensive IFR   Very Intensive IFR
Visi :
Ceiling :
>= 8 km
>= 3000ft
5 to 8 km
1000 to 3000 ft
1500m to 5 km
500 to 1000 ft
800 to 1500m
200 to 500 ft
< 800m
< 200 ft
Symbols :   Thunderstorms  Fog  Heavy snow  Heavy precipitations  Wind > 20 kt
SIGMETs :     Misc.  Thunderstorms  Icing  Turbulence  Mountain Waves  Volcanic Ashes






- Airport Elevation : 277 ft
- IATA code : JER


EGJJ - Jersey

CURRENT METAR :
  • 131050Z 29025G36KT 9999 -SHRA FEW025CB SCT033 09/04 Q0990

EXPIRED METARs :
  • 131020Z 29032G46KT 9999 VCSH FEW025CB SCT035 10/03 Q0989
  • 130950Z 29026G41KT 9999 VCSH FEW024CB SCT032 09/04 Q0988
  • 130920Z 29029G44KT 9999 VCSH FEW024CB SCT036 09/03 Q0987
  • 130850Z 29030G44KT 9999 VCSH FEW024CB SCT034 09/04 Q0987
  • 130820Z 29027G39KT 9999 VCSH FEW020CB SCT033 09/04 Q0986

TAF AMD TAF EGJJ
Valid from the 13 at 09:00 until the 13 at 18:00 UTC


130810Z 1309/1318 28026G40KT 9999 FEW006 SCT015
PROB40
TEMPO 1309/1315 8000 SHRA BKN013TCU
PROB30
TEMPO 1309/1311 29035G52KT 4000 +SHRAGS BKN012CB
BECMG 1316/1318 27016KT 8000 RA BKN014
ATIS : +44 1534 498 073



MET'MAP, your aeronautical weather chart ! - Copyright ORBIFLY December 2007 - Disclaimer

ORBIFLY MET'MAP TEAM :

Programming & Development : Alexandra Zaïnal
Concept & original design : Baudouin d'Aumeries
Assistance for programming : Marc-Olivier Méhu
Technical & hardware support : Manuel Goepfert

Contact : metmap@orbifly.com




SOURCES & CREDITS :

   NOAA